sensor_id;sensor_type;location;lat;lon;timestamp;temperature;humidity
69281;SHT31;56392;51.082;17.080;2023-02-10T00:00:24;0.48;66.09
69281;SHT31;56392;51.082;17.080;2023-02-10T00:05:59;0.51;66.04
69281;SHT31;56392;51.082;17.080;2023-02-10T00:11:25;0.41;66.93
69281;SHT31;56392;51.082;17.080;2023-02-10T00:17:03;0.25;67.29
69281;SHT31;56392;51.082;17.080;2023-02-10T00:22:26;0.21;67.56
69281;SHT31;56392;51.082;17.080;2023-02-10T00:27:51;0.13;67.99
69281;SHT31;56392;51.082;17.080;2023-02-10T00:33:14;0.11;67.61
69281;SHT31;56392;51.082;17.080;2023-02-10T00:38:38;0.04;67.66
69281;SHT31;56392;51.082;17.080;2023-02-10T00:44:02;-0.06;68.03
69281;SHT31;56392;51.082;17.080;2023-02-10T00:49:26;-0.18;68.53
69281;SHT31;56392;51.082;17.080;2023-02-10T00:54:49;-0.20;68.46
69281;SHT31;56392;51.082;17.080;2023-02-10T01:00:14;-0.38;68.71
69281;SHT31;56392;51.082;17.080;2023-02-10T01:05:37;-0.45;68.94
69281;SHT31;56392;51.082;17.080;2023-02-10T01:11:02;-0.45;68.91
69281;SHT31;56392;51.082;17.080;2023-02-10T01:16:27;-0.45;69.18
69281;SHT31;56392;51.082;17.080;2023-02-10T01:21:50;-0.47;69.12
69281;SHT31;56392;51.082;17.080;2023-02-10T01:27:13;-0.48;69.10
69281;SHT31;56392;51.082;17.080;2023-02-10T01:32:37;-0.48;69.31
69281;SHT31;56392;51.082;17.080;2023-02-10T01:38:00;-0.50;69.30
69281;SHT31;56392;51.082;17.080;2023-02-10T01:43:23;-0.50;69.27
69281;SHT31;56392;51.082;17.080;2023-02-10T01:48:48;-0.57;69.27
69281;SHT31;56392;51.082;17.080;2023-02-10T01:54:14;-0.66;69.20
69281;SHT31;56392;51.082;17.080;2023-02-10T01:59:40;-0.69;69.60
69281;SHT31;56392;51.082;17.080;2023-02-10T02:05:17;-0.75;69.61
69281;SHT31;56392;51.082;17.080;2023-02-10T02:10:53;-0.76;69.37
69281;SHT31;56392;51.082;17.080;2023-02-10T02:16:27;-0.85;70.06
69281;SHT31;56392;51.082;17.080;2023-02-10T02:22:12;-0.83;69.60
69281;SHT31;56392;51.082;17.080;2023-02-10T02:28:00;-0.95;70.14
69281;SHT31;56392;51.082;17.080;2023-02-10T02:33:30;-1.00;70.45
69281;SHT31;56392;51.082;17.080;2023-02-10T02:38:59;-1.09;70.36
69281;SHT31;56392;51.082;17.080;2023-02-10T02:44:22;-1.19;70.68
69281;SHT31;56392;51.082;17.080;2023-02-10T02:49:53;-1.21;71.06
69281;SHT31;56392;51.082;17.080;2023-02-10T02:55:24;-1.24;71.26
69281;SHT31;56392;51.082;17.080;2023-02-10T03:00:49;-1.24;71.15
69281;SHT31;56392;51.082;17.080;2023-02-10T03:06:15;-1.26;70.99
69281;SHT31;56392;51.082;17.080;2023-02-10T03:11:38;-1.24;71.26
69281;SHT31;56392;51.082;17.080;2023-02-10T03:17:01;-1.24;71.12
69281;SHT31;56392;51.082;17.080;2023-02-10T03:22:26;-1.24;71.11
69281;SHT31;56392;51.082;17.080;2023-02-10T03:27:49;-1.23;71.14
69281;SHT31;56392;51.082;17.080;2023-02-10T03:33:12;-1.20;71.17
69281;SHT31;56392;51.082;17.080;2023-02-10T03:38:37;-1.21;71.00
69281;SHT31;56392;51.082;17.080;2023-02-10T03:44:00;-1.23;71.22
69281;SHT31;56392;51.082;17.080;2023-02-10T03:49:23;-1.24;71.38
69281;SHT31;56392;51.082;17.080;2023-02-10T03:54:47;-1.21;71.37
69281;SHT31;56392;51.082;17.080;2023-02-10T04:00:12;-1.26;71.21
69281;SHT31;56392;51.082;17.080;2023-02-10T04:05:36;-1.24;71.09
69281;SHT31;56392;51.082;17.080;2023-02-10T04:11:00;-1.21;70.76
69281;SHT31;56392;51.082;17.080;2023-02-10T04:16:23;-1.23;71.01
69281;SHT31;56392;51.082;17.080;2023-02-10T04:21:49;-1.20;70.44
69281;SHT31;56392;51.082;17.080;2023-02-10T04:27:14;-1.10;69.82
69281;SHT31;56392;51.082;17.080;2023-02-10T04:32:37;-1.03;70.25
69281;SHT31;56392;51.082;17.080;2023-02-10T04:38:00;-1.02;69.72
69281;SHT31;56392;51.082;17.080;2023-02-10T04:43:26;-0.85;68.65
69281;SHT31;56392;51.082;17.080;2023-02-10T04:48:49;-0.73;67.99
69281;SHT31;56392;51.082;17.080;2023-02-10T04:54:12;-0.72;67.99
69281;SHT31;56392;51.082;17.080;2023-02-10T04:59:37;-0.64;67.47
69281;SHT31;56392;51.082;17.080;2023-02-10T05:05:00;-0.61;66.99
69281;SHT31;56392;51.082;17.080;2023-02-10T05:10:23;-0.66;67.73
69281;SHT31;56392;51.082;17.080;2023-02-10T05:15:47;-0.73;68.21
69281;SHT31;56392;51.082;17.080;2023-02-10T05:21:12;-0.83;68.90
69281;SHT31;56392;51.082;17.080;2023-02-10T05:26:35;-0.93;69.11
69281;SHT31;56392;51.082;17.080;2023-02-10T05:32:00;-0.96;69.78
69281;SHT31;56392;51.082;17.080;2023-02-10T05:37:23;-0.81;68.63
69281;SHT31;56392;51.082;17.080;2023-02-10T05:42:46;-0.62;67.53
69281;SHT31;56392;51.082;17.080;2023-02-10T05:48:11;-0.45;67.30
69281;SHT31;56392;51.082;17.080;2023-02-10T05:53:34;-0.32;66.82
69281;SHT31;56392;51.082;17.080;2023-02-10T05:58:57;-0.22;66.15
69281;SHT31;56392;51.082;17.080;2023-02-10T06:04:21;-0.07;65.69
69281;SHT31;56392;51.082;17.080;2023-02-10T06:09:44;0.01;65.50
69281;SHT31;56392;51.082;17.080;2023-02-10T06:15:08;0.09;65.43
69281;SHT31;56392;51.082;17.080;2023-02-10T06:20:33;0.17;64.86
69281;SHT31;56392;51.082;17.080;2023-02-10T06:25:56;0.27;64.60
69281;SHT31;56392;51.082;17.080;2023-02-10T06:31:20;0.34;64.65
69281;SHT31;56392;51.082;17.080;2023-02-10T06:36:45;0.40;64.51
69281;SHT31;56392;51.082;17.080;2023-02-10T06:42:08;0.45;64.63
69281;SHT31;56392;51.082;17.080;2023-02-10T06:47:31;0.52;64.65
69281;SHT31;56392;51.082;17.080;2023-02-10T06:52:55;0.57;64.07
69281;SHT31;56392;51.082;17.080;2023-02-10T06:58:18;0.65;64.05
69281;SHT31;56392;51.082;17.080;2023-02-10T07:03:41;0.71;63.52
69281;SHT31;56392;51.082;17.080;2023-02-10T07:09:06;0.79;63.18
69281;SHT31;56392;51.082;17.080;2023-02-10T07:14:29;0.86;62.90
69281;SHT31;56392;51.082;17.080;2023-02-10T07:19:52;0.93;62.80
69281;SHT31;56392;51.082;17.080;2023-02-10T07:25:17;0.95;62.88
69281;SHT31;56392;51.082;17.080;2023-02-10T07:30:40;1.03;62.99
69281;SHT31;56392;51.082;17.080;2023-02-10T07:36:03;1.12;62.78
69281;SHT31;56392;51.082;17.080;2023-02-10T07:41:28;1.16;63.03
69281;SHT31;56392;51.082;17.080;2023-02-10T07:46:52;1.19;63.41
69281;SHT31;56392;51.082;17.080;2023-02-10T07:52:15;1.24;63.21
69281;SHT31;56392;51.082;17.080;2023-02-10T07:57:39;1.31;63.36
69281;SHT31;56392;51.082;17.080;2023-02-10T08:03:03;1.36;63.47
69281;SHT31;56392;51.082;17.080;2023-02-10T08:08:26;1.44;63.62
69281;SHT31;56392;51.082;17.080;2023-02-10T08:13:50;1.53;63.93
69281;SHT31;56392;51.082;17.080;2023-02-10T08:19:13;1.60;64.38
69281;SHT31;56392;51.082;17.080;2023-02-10T08:24:36;1.68;64.57
69281;SHT31;56392;51.082;17.080;2023-02-10T08:30:01;1.78;64.37
69281;SHT31;56392;51.082;17.080;2023-02-10T08:35:26;1.84;65.00
69281;SHT31;56392;51.082;17.080;2023-02-10T08:40:54;1.88;65.71
69281;SHT31;56392;51.082;17.080;2023-02-10T08:46:19;1.97;66.17
69281;SHT31;56392;51.082;17.080;2023-02-10T08:51:42;2.06;66.89
69281;SHT31;56392;51.082;17.080;2023-02-10T08:57:06;2.18;67.48
69281;SHT31;56392;51.082;17.080;2023-02-10T09:02:30;2.22;68.28
69281;SHT31;56392;51.082;17.080;2023-02-10T09:07:54;2.30;68.20
69281;SHT31;56392;51.082;17.080;2023-02-10T09:13:17;2.37;68.54
69281;SHT31;56392;51.082;17.080;2023-02-10T09:18:41;2.44;69.03
69281;SHT31;56392;51.082;17.080;2023-02-10T09:24:05;2.53;69.82
69281;SHT31;56392;51.082;17.080;2023-02-10T09:29:28;2.67;69.70
69281;SHT31;56392;51.082;17.080;2023-02-10T09:34:53;2.77;69.97
69281;SHT31;56392;51.082;17.080;2023-02-10T09:40:18;2.95;70.27
69281;SHT31;56392;51.082;17.080;2023-02-10T09:45:44;3.08;69.72
69281;SHT31;56392;51.082;17.080;2023-02-10T09:51:18;3.18;69.74
69281;SHT31;56392;51.082;17.080;2023-02-10T09:56:45;3.31;69.60
69281;SHT31;56392;51.082;17.080;2023-02-10T10:02:14;3.48;70.12
69281;SHT31;56392;51.082;17.080;2023-02-10T10:07:49;3.56;69.57
69281;SHT31;56392;51.082;17.080;2023-02-10T10:13:14;3.66;69.40
69281;SHT31;56392;51.082;17.080;2023-02-10T10:18:43;3.72;69.37
69281;SHT31;56392;51.082;17.080;2023-02-10T10:24:23;3.86;69.58
69281;SHT31;56392;51.082;17.080;2023-02-10T10:29:52;3.86;69.51
69281;SHT31;56392;51.082;17.080;2023-02-10T10:35:17;3.90;69.44
69281;SHT31;56392;51.082;17.080;2023-02-10T10:40:43;3.96;69.25
69281;SHT31;56392;51.082;17.080;2023-02-10T10:46:13;3.96;69.08
69281;SHT31;56392;51.082;17.080;2023-02-10T10:51:37;3.98;69.09
69281;SHT31;56392;51.082;17.080;2023-02-10T10:57:03;4.07;68.94
69281;SHT31;56392;51.082;17.080;2023-02-10T11:02:28;4.16;68.36
69281;SHT31;56392;51.082;17.080;2023-02-10T11:07:51;4.22;68.39
69281;SHT31;56392;51.082;17.080;2023-02-10T11:13:19;4.25;67.77
69281;SHT31;56392;51.082;17.080;2023-02-10T11:18:52;4.30;67.73
69281;SHT31;56392;51.082;17.080;2023-02-10T11:24:22;4.31;67.86
69281;SHT31;56392;51.082;17.080;2023-02-10T11:29:48;4.31;67.71
69281;SHT31;56392;51.082;17.080;2023-02-10T11:35:15;4.41;67.59
69281;SHT31;56392;51.082;17.080;2023-02-10T11:40:49;4.40;67.48
69281;SHT31;56392;51.082;17.080;2023-02-10T11:46:20;4.48;67.50
69281;SHT31;56392;51.082;17.080;2023-02-10T11:51:50;4.49;67.72
69281;SHT31;56392;51.082;17.080;2023-02-10T11:57:25;4.59;67.36
69281;SHT31;56392;51.082;17.080;2023-02-10T12:03:38;4.62;67.22
69281;SHT31;56392;51.082;17.080;2023-02-10T12:09:11;4.65;67.28
69281;SHT31;56392;51.082;17.080;2023-02-10T12:14:51;4.69;67.31
69281;SHT31;56392;51.082;17.080;2023-02-10T12:20:29;4.73;67.30
69281;SHT31;56392;51.082;17.080;2023-02-10T12:26:05;4.73;67.18
69281;SHT31;56392;51.082;17.080;2023-02-10T12:31:39;4.79;67.49
69281;SHT31;56392;51.082;17.080;2023-02-10T12:37:18;4.80;67.51
69281;SHT31;56392;51.082;17.080;2023-02-10T12:42:51;4.79;67.55
69281;SHT31;56392;51.082;17.080;2023-02-10T12:48:26;4.82;67.48
69281;SHT31;56392;51.082;17.080;2023-02-10T12:53:55;4.82;67.50
69281;SHT31;56392;51.082;17.080;2023-02-10T12:59:24;4.86;67.51
69281;SHT31;56392;51.082;17.080;2023-02-10T13:04:53;4.79;67.53
69281;SHT31;56392;51.082;17.080;2023-02-10T13:10:27;4.83;67.46
69281;SHT31;56392;51.082;17.080;2023-02-10T13:15:56;4.85;67.81
69281;SHT31;56392;51.082;17.080;2023-02-10T13:21:24;4.85;68.70
69281;SHT31;56392;51.082;17.080;2023-02-10T13:26:58;4.92;68.42
69281;SHT31;56392;51.082;17.080;2023-02-10T13:32:33;4.92;68.30
69281;SHT31;56392;51.082;17.080;2023-02-10T13:38:05;4.88;68.47
69281;SHT31;56392;51.082;17.080;2023-02-10T13:43:31;4.88;68.39
69281;SHT31;56392;51.082;17.080;2023-02-10T13:48:57;4.95;68.15
69281;SHT31;56392;51.082;17.080;2023-02-10T13:54:24;4.96;68.06
69281;SHT31;56392;51.082;17.080;2023-02-10T13:59:49;4.89;68.08
69281;SHT31;56392;51.082;17.080;2023-02-10T14:05:24;4.89;68.29
69281;SHT31;56392;51.082;17.080;2023-02-10T14:10:57;4.89;68.04
69281;SHT31;56392;51.082;17.080;2023-02-10T14:16:29;4.90;67.89
69281;SHT31;56392;51.082;17.080;2023-02-10T14:21:53;4.86;67.91
69281;SHT31;56392;51.082;17.080;2023-02-10T14:27:18;4.92;67.99
69281;SHT31;56392;51.082;17.080;2023-02-10T14:32:45;4.89;68.11
69281;SHT31;56392;51.082;17.080;2023-02-10T14:38:21;4.90;67.98
69281;SHT31;56392;51.082;17.080;2023-02-10T14:43:44;4.85;68.00
69281;SHT31;56392;51.082;17.080;2023-02-10T14:49:18;4.85;68.05
69281;SHT31;56392;51.082;17.080;2023-02-10T14:54:41;4.86;68.03
69281;SHT31;56392;51.082;17.080;2023-02-10T15:00:12;4.79;67.88
69281;SHT31;56392;51.082;17.080;2023-02-10T15:05:38;4.79;67.87
69281;SHT31;56392;51.082;17.080;2023-02-10T15:11:04;4.75;67.63
69281;SHT31;56392;51.082;17.080;2023-02-10T15:16:28;4.72;67.79
69281;SHT31;56392;51.082;17.080;2023-02-10T15:21:55;4.72;67.83
69281;SHT31;56392;51.082;17.080;2023-02-10T15:27:22;4.69;67.85
69281;SHT31;56392;51.082;17.080;2023-02-10T15:32:47;4.64;67.89
69281;SHT31;56392;51.082;17.080;2023-02-10T15:38:13;4.62;67.89
69281;SHT31;56392;51.082;17.080;2023-02-10T15:43:36;4.59;67.94
69281;SHT31;56392;51.082;17.080;2023-02-10T15:49:09;4.49;68.24
69281;SHT31;56392;51.082;17.080;2023-02-10T15:54:35;4.51;68.00
69281;SHT31;56392;51.082;17.080;2023-02-10T15:59:59;4.44;68.01
69281;SHT31;56392;51.082;17.080;2023-02-10T16:05:24;4.40;67.83
69281;SHT31;56392;51.082;17.080;2023-02-10T16:10:49;4.34;68.05
69281;SHT31;56392;51.082;17.080;2023-02-10T16:16:15;4.37;67.97
69281;SHT31;56392;51.082;17.080;2023-02-10T16:21:39;4.30;67.96
69281;SHT31;56392;51.082;17.080;2023-02-10T16:27:04;4.24;67.91
69281;SHT31;56392;51.082;17.080;2023-02-10T16:32:28;4.21;67.65
69281;SHT31;56392;51.082;17.080;2023-02-10T16:37:51;4.18;67.63
69281;SHT31;56392;51.082;17.080;2023-02-10T16:43:16;4.21;67.23
69281;SHT31;56392;51.082;17.080;2023-02-10T16:48:39;4.17;67.57
69281;SHT31;56392;51.082;17.080;2023-02-10T16:54:02;4.16;67.35
69281;SHT31;56392;51.082;17.080;2023-02-10T16:59:32;4.17;67.31
69281;SHT31;56392;51.082;17.080;2023-02-10T17:04:55;4.16;67.36
69281;SHT31;56392;51.082;17.080;2023-02-10T17:10:19;4.16;67.45
69281;SHT31;56392;51.082;17.080;2023-02-10T17:15:45;4.17;67.46
69281;SHT31;56392;51.082;17.080;2023-02-10T17:21:09;4.14;67.43
69281;SHT31;56392;51.082;17.080;2023-02-10T17:26:32;4.16;67.48
69281;SHT31;56392;51.082;17.080;2023-02-10T17:31:57;4.16;67.53
69281;SHT31;56392;51.082;17.080;2023-02-10T17:37:21;4.18;67.53
69281;SHT31;56392;51.082;17.080;2023-02-10T17:42:44;4.22;67.47
69281;SHT31;56392;51.082;17.080;2023-02-10T17:48:09;4.20;67.62
69281;SHT31;56392;51.082;17.080;2023-02-10T17:53:34;4.21;67.59
69281;SHT31;56392;51.082;17.080;2023-02-10T17:58:57;4.20;67.53
69281;SHT31;56392;51.082;17.080;2023-02-10T18:04:22;4.18;67.70
69281;SHT31;56392;51.082;17.080;2023-02-10T18:09:45;4.18;67.78
69281;SHT31;56392;51.082;17.080;2023-02-10T18:15:09;4.17;67.74
69281;SHT31;56392;51.082;17.080;2023-02-10T18:20:34;4.16;67.74
69281;SHT31;56392;51.082;17.080;2023-02-10T18:26:00;4.11;67.56
69281;SHT31;56392;51.082;17.080;2023-02-10T18:31:23;4.06;67.39
69281;SHT31;56392;51.082;17.080;2023-02-10T18:36:47;3.96;66.51
69281;SHT31;56392;51.082;17.080;2023-02-10T18:42:11;3.89;66.29
69281;SHT31;56392;51.082;17.080;2023-02-10T18:47:34;3.76;65.95
69281;SHT31;56392;51.082;17.080;2023-02-10T18:52:58;3.72;66.00
69281;SHT31;56392;51.082;17.080;2023-02-10T18:58:21;3.66;66.21
69281;SHT31;56392;51.082;17.080;2023-02-10T19:03:45;3.65;66.20
69281;SHT31;56392;51.082;17.080;2023-02-10T19:09:13;3.63;66.15
69281;SHT31;56392;51.082;17.080;2023-02-10T19:14:38;3.60;66.19
69281;SHT31;56392;51.082;17.080;2023-02-10T19:20:02;3.62;66.20
69281;SHT31;56392;51.082;17.080;2023-02-10T19:25:28;3.58;66.27
69281;SHT31;56392;51.082;17.080;2023-02-10T19:30:51;3.52;66.32
69281;SHT31;56392;51.082;17.080;2023-02-10T19:36:16;3.52;66.42
69281;SHT31;56392;51.082;17.080;2023-02-10T19:41:41;3.48;66.66
69281;SHT31;56392;51.082;17.080;2023-02-10T19:47:05;3.51;66.83
69281;SHT31;56392;51.082;17.080;2023-02-10T19:52:30;3.49;67.43
69281;SHT31;56392;51.082;17.080;2023-02-10T19:57:55;3.43;67.98
69281;SHT31;56392;51.082;17.080;2023-02-10T20:03:20;3.38;68.31
69281;SHT31;56392;51.082;17.080;2023-02-10T20:08:43;3.36;68.42
69281;SHT31;56392;51.082;17.080;2023-02-10T20:14:08;3.32;68.72
69281;SHT31;56392;51.082;17.080;2023-02-10T20:19:34;3.28;68.76
69281;SHT31;56392;51.082;17.080;2023-02-10T20:24:57;3.21;68.90
69281;SHT31;56392;51.082;17.080;2023-02-10T20:30:21;3.22;69.05
69281;SHT31;56392;51.082;17.080;2023-02-10T20:35:45;3.16;69.07
69281;SHT31;56392;51.082;17.080;2023-02-10T20:41:08;3.09;69.46
69281;SHT31;56392;51.082;17.080;2023-02-10T20:46:34;3.05;69.81
69281;SHT31;56392;51.082;17.080;2023-02-10T20:51:57;3.03;69.97
69281;SHT31;56392;51.082;17.080;2023-02-10T20:57:20;2.95;70.24
69281;SHT31;56392;51.082;17.080;2023-02-10T21:02:45;2.94;70.65
69281;SHT31;56392;51.082;17.080;2023-02-10T21:08:08;2.88;70.77
69281;SHT31;56392;51.082;17.080;2023-02-10T21:13:31;2.83;70.59
69281;SHT31;56392;51.082;17.080;2023-02-10T21:18:56;2.77;70.72
69281;SHT31;56392;51.082;17.080;2023-02-10T21:24:19;2.68;70.79
69281;SHT31;56392;51.082;17.080;2023-02-10T21:29:44;2.64;70.74
69281;SHT31;56392;51.082;17.080;2023-02-10T21:35:10;2.54;71.02
69281;SHT31;56392;51.082;17.080;2023-02-10T21:40:33;2.43;71.44
69281;SHT31;56392;51.082;17.080;2023-02-10T21:45:57;2.35;71.74
69281;SHT31;56392;51.082;17.080;2023-02-10T21:51:22;2.22;72.24
69281;SHT31;56392;51.082;17.080;2023-02-10T21:56:45;2.09;72.47
69281;SHT31;56392;51.082;17.080;2023-02-10T22:02:10;2.02;72.78
69281;SHT31;56392;51.082;17.080;2023-02-10T22:07:39;2.02;72.65
69281;SHT31;56392;51.082;17.080;2023-02-10T22:13:04;1.92;73.00
69281;SHT31;56392;51.082;17.080;2023-02-10T22:18:28;1.85;73.28
69281;SHT31;56392;51.082;17.080;2023-02-10T22:23:56;1.79;73.44
69281;SHT31;56392;51.082;17.080;2023-02-10T22:29:19;1.68;73.66
69281;SHT31;56392;51.082;17.080;2023-02-10T22:34:44;1.60;73.96
69281;SHT31;56392;51.082;17.080;2023-02-10T22:40:09;1.58;74.08
69281;SHT31;56392;51.082;17.080;2023-02-10T22:45:33;1.53;74.22
69281;SHT31;56392;51.082;17.080;2023-02-10T22:51:05;1.46;74.61
69281;SHT31;56392;51.082;17.080;2023-02-10T22:56:32;1.43;74.65
69281;SHT31;56392;51.082;17.080;2023-02-10T23:01:55;1.50;74.38
69281;SHT31;56392;51.082;17.080;2023-02-10T23:07:18;1.50;74.28
69281;SHT31;56392;51.082;17.080;2023-02-10T23:12:43;1.47;74.31
69281;SHT31;56392;51.082;17.080;2023-02-10T23:18:07;1.48;74.23
69281;SHT31;56392;51.082;17.080;2023-02-10T23:23:30;1.51;74.09
69281;SHT31;56392;51.082;17.080;2023-02-10T23:28:59;1.55;73.86
69281;SHT31;56392;51.082;17.080;2023-02-10T23:34:22;1.71;73.55
69281;SHT31;56392;51.082;17.080;2023-02-10T23:39:45;1.78;73.55
69281;SHT31;56392;51.082;17.080;2023-02-10T23:45:10;1.82;73.49
69281;SHT31;56392;51.082;17.080;2023-02-10T23:50:34;1.81;74.00
69281;SHT31;56392;51.082;17.080;2023-02-10T23:55:58;1.81;74.17
